Time;durP1;ratioP1;P1;durP2;ratioP2;P2;SDS_P1;SDS_P2;PMS_P1;PMS_P2;Temp;Humidity;BMP_temperature;BMP_pressure;BME280_temperature;BME280_humidity;BME280_pressure;Samples;Min_cycle;Max_cycle;Signal;HPM_P1;HPM_P2
2023/04/19 00:01:58;;;;;;;31.20;20.40;;;;;;;9.95;76.37;100828.48;129545;1281;114745;-65
2023/04/19 00:05:00;;;;;;;30.60;20.40;;;;;;;9.91;76.60;100832.90;129494;1260;114789;-68
2023/04/19 00:08:04;;;;;;;24.90;18.20;;;;;;;9.86;76.55;100831.64;129577;1271;114790;-66
2023/04/19 00:11:07;;;;;;;28.20;18.70;;;;;;;9.81;76.39;100827.20;129403;1263;114925;-65
2023/04/19 00:14:09;;;;;;;25.60;17.60;;;;;;;9.78;76.42;100824.14;129497;1271;114780;-67
2023/04/19 00:17:11;;;;;;;27.20;18.30;;;;;;;9.73;76.22;100821.63;129414;1274;114804;-68
2023/04/19 00:20:13;;;;;;;26.50;18.50;;;;;;;9.69;76.15;100824.82;129868;1275;115230;-64
2023/04/19 00:23:15;;;;;;;27.10;19.10;;;;;;;9.63;76.23;100819.86;129341;1261;114793;-65
2023/04/19 00:26:17;;;;;;;24.10;17.70;;;;;;;9.58;76.20;100820.40;129388;1263;114704;-64
2023/04/19 00:29:19;;;;;;;24.60;17.80;;;;;;;9.54;76.28;100814.47;129495;1273;114776;-64
2023/04/19 00:32:21;;;;;;;26.10;18.30;;;;;;;9.50;76.28;100811.23;129299;1281;116427;-64
2023/04/19 00:35:23;;;;;;;28.20;18.60;;;;;;;9.45;76.28;100809.11;129411;1266;114730;-65
2023/04/19 00:38:26;;;;;;;22.60;17.50;;;;;;;9.39;76.24;100806.10;129386;1264;114756;-66
2023/04/19 00:41:27;;;;;;;24.70;17.00;;;;;;;9.33;76.19;100798.84;129649;1263;115292;-67
2023/04/19 00:44:30;;;;;;;25.10;17.40;;;;;;;9.28;76.17;100794.38;130124;1261;114797;-66
2023/04/19 00:47:33;;;;;;;27.00;17.80;;;;;;;9.23;76.08;100792.61;130635;1261;114789;-65
2023/04/19 00:50:35;;;;;;;25.60;17.20;;;;;;;9.18;76.02;100791.90;131111;1259;114826;-69
2023/04/19 00:53:38;;;;;;;22.30;15.10;;;;;;;9.11;75.91;100788.02;132186;1263;114970;-71
2023/04/19 00:56:40;;;;;;;22.00;14.30;;;;;;;9.06;75.59;100774.85;132033;1265;114788;-71
2023/04/19 00:59:42;;;;;;;23.10;14.70;;;;;;;9.02;75.65;100772.15;131077;1279;114768;-69
2023/04/19 01:02:46;;;;;;;21.10;14.40;;;;;;;8.98;75.46;100766.77;129664;1263;115309;-66
2023/04/19 01:05:48;;;;;;;22.70;15.60;;;;;;;8.93;75.17;100760.54;129679;1263;115125;-69
2023/04/19 01:08:50;;;;;;;21.20;13.20;;;;;;;8.89;75.23;100759.61;129907;1267;115157;-67
2023/04/19 01:11:53;;;;;;;23.40;14.50;;;;;;;8.86;75.10;100760.42;129829;1273;114659;-67
2023/04/19 01:14:55;;;;;;;20.10;13.50;;;;;;;8.81;75.16;100757.00;129394;1258;114795;-65
2023/04/19 01:17:57;;;;;;;23.50;15.50;;;;;;;8.78;74.90;100753.91;129120;1264;114874;-66
2023/04/19 01:20:59;;;;;;;23.60;15.70;;;;;;;8.75;75.16;100750.30;129405;1261;114731;-65
2023/04/19 01:24:01;;;;;;;21.60;14.80;;;;;;;8.72;75.17;100746.65;129089;1264;216889;-64
2023/04/19 01:27:03;;;;;;;20.90;14.80;;;;;;;8.67;75.07;100742.00;129383;1273;115494;-66
2023/04/19 01:30:06;;;;;;;19.90;13.30;;;;;;;8.62;74.67;100746.98;129563;1264;114725;-66
2023/04/19 01:33:08;;;;;;;19.80;13.90;;;;;;;8.56;74.38;100740.25;129400;1264;114732;-65
2023/04/19 01:36:11;;;;;;;22.00;13.40;;;;;;;8.50;73.93;100744.36;129526;1265;114762;-64
2023/04/19 01:39:13;;;;;;;21.00;13.10;;;;;;;8.46;73.98;100741.26;129407;1262;114813;-68
2023/04/19 01:42:15;;;;;;;21.60;14.40;;;;;;;8.43;74.10;100744.08;129525;1259;114726;-64
2023/04/19 01:45:18;;;;;;;21.20;14.20;;;;;;;8.38;73.93;100739.02;129497;1262;115312;-66
2023/04/19 01:48:19;;;;;;;19.30;14.10;;;;;;;8.33;73.79;100733.49;129466;1271;114790;-66
2023/04/19 01:51:21;;;;;;;19.80;14.40;;;;;;;8.31;73.78;100729.30;129417;1262;114707;-66
2023/04/19 01:54:23;;;;;;;17.30;12.50;;;;;;;8.28;73.72;100733.52;129380;1281;114731;-65
2023/04/19 01:57:25;;;;;;;21.20;14.20;;;;;;;8.25;73.40;100733.24;129407;1272;114795;-71
2023/04/19 02:00:27;;;;;;;20.30;13.60;;;;;;;8.23;73.14;100731.00;129398;1266;117013;-66
2023/04/19 02:03:29;;;;;;;16.10;11.10;;;;;;;8.19;72.60;100734.33;129152;1264;128173;-69
2023/04/19 02:06:32;;;;;;;18.40;11.40;;;;;;;8.15;71.98;100739.79;129531;1262;114761;-66
2023/04/19 02:09:35;;;;;;;16.90;9.90;;;;;;;8.10;71.83;100736.23;129515;1262;114741;-68
2023/04/19 02:12:37;;;;;;;16.40;10.20;;;;;;;8.05;71.57;100736.00;129410;1281;114776;-68
2023/04/19 02:15:39;;;;;;;13.40;9.70;;;;;;;8.01;70.91;100735.61;129569;1271;115240;-68
2023/04/19 02:18:42;;;;;;;14.20;8.80;;;;;;;7.95;70.73;100732.24;129579;1266;115230;-68
2023/04/19 02:21:44;;;;;;;17.50;9.20;;;;;;;7.91;70.15;100735.02;129503;1271;114891;-65
2023/04/19 02:24:48;;;;;;;21.00;8.30;;;;;;;7.86;70.00;100733.95;129468;1264;114782;-69
2023/04/19 02:27:50;;;;;;;11.90;7.70;;;;;;;7.81;69.75;100728.96;129456;1264;115167;-67
2023/04/19 02:30:52;;;;;;;11.20;7.60;;;;;;;7.76;69.33;100727.85;129538;1263;114733;-69
2023/04/19 02:33:54;;;;;;;11.20;7.60;;;;;;;7.70;68.88;100725.90;129465;1271;114822;-66
2023/04/19 02:36:55;;;;;;;11.10;7.20;;;;;;;7.65;68.71;100722.31;129160;1281;114786;-69
2023/04/19 02:39:57;;;;;;;11.90;7.10;;;;;;;7.59;68.43;100717.53;129353;1260;115189;-66
2023/04/19 02:42:59;;;;;;;9.80;7.00;;;;;;;7.53;68.13;100714.84;129430;1281;114742;-69
2023/04/19 02:46:02;;;;;;;9.80;6.60;;;;;;;7.49;68.14;100716.05;129472;1271;129393;-69
2023/04/19 02:49:04;;;;;;;15.40;6.90;;;;;;;7.45;67.57;100713.33;129454;1275;114875;-68
2023/04/19 02:52:06;;;;;;;14.50;7.00;;;;;;;7.40;67.72;100708.85;129474;1262;114819;-68
2023/04/19 02:55:09;;;;;;;10.40;7.20;;;;;;;7.37;67.54;100707.88;129511;1275;114642;-68
2023/04/19 02:58:11;;;;;;;10.30;7.30;;;;;;;7.35;67.85;100705.09;129434;1281;114708;-69
2023/04/19 03:01:13;;;;;;;13.00;8.10;;;;;;;7.33;68.27;100699.12;129388;1270;114763;-68
2023/04/19 03:04:15;;;;;;;17.00;7.80;;;;;;;7.32;67.95;100698.06;129564;1280;114744;-68
2023/04/19 03:07:18;;;;;;;15.30;7.30;;;;;;;7.29;67.72;100696.36;129517;1263;127715;-69
2023/04/19 03:10:20;;;;;;;17.20;8.50;;;;;;;7.27;68.16;100688.27;129591;1274;114664;-69
2023/04/19 03:13:22;;;;;;;12.80;8.20;;;;;;;7.26;68.01;100692.92;129721;1260;114689;-68
2023/04/19 03:16:25;;;;;;;13.60;7.80;;;;;;;7.24;68.22;100697.23;129571;1281;114685;-68
2023/04/19 03:19:27;;;;;;;11.70;7.10;;;;;;;7.22;67.94;100698.90;129365;1261;114728;-68
2023/04/19 03:22:29;;;;;;;15.40;8.30;;;;;;;7.21;67.91;100694.32;129451;1261;114718;-69
2023/04/19 03:25:32;;;;;;;8.40;6.10;;;;;;;7.19;67.66;100695.23;129522;1262;114813;-67
2023/04/19 03:28:34;;;;;;;10.00;6.40;;;;;;;7.16;67.24;100694.27;129367;1265;129214;-66
2023/04/19 03:31:36;;;;;;;11.20;7.00;;;;;;;7.13;67.45;100687.95;129387;1264;115180;-69
2023/04/19 03:34:38;;;;;;;8.80;6.20;;;;;;;7.11;67.44;100683.93;129494;1260;114740;-68
2023/04/19 03:37:40;;;;;;;9.50;5.60;;;;;;;7.08;67.00;100682.23;129399;1273;114730;-68
2023/04/19 03:40:42;;;;;;;11.20;6.30;;;;;;;7.05;67.04;100676.65;129424;1261;114885;-69
2023/04/19 03:43:44;;;;;;;12.00;6.50;;;;;;;7.01;67.16;100674.46;129613;1264;115393;-69
2023/04/19 03:46:47;;;;;;;11.50;5.80;;;;;;;6.98;67.23;100669.20;129456;1274;114725;-68
2023/04/19 03:49:49;;;;;;;9.70;6.10;;;;;;;6.93;67.28;100674.86;129458;1264;128988;-67
2023/04/19 03:52:51;;;;;;;13.20;6.30;;;;;;;6.89;67.41;100674.08;129407;1273;115110;-69
2023/04/19 03:55:53;;;;;;;10.60;5.90;;;;;;;6.85;67.17;100680.76;129390;1275;114852;-68
2023/04/19 03:58:55;;;;;;;9.10;6.30;;;;;;;6.82;66.95;100677.83;129482;1281;114660;-69
2023/04/19 04:01:57;;;;;;;11.50;6.00;;;;;;;6.77;67.00;100680.46;129373;1281;114747;-68
2023/04/19 04:04:59;;;;;;;13.50;6.50;;;;;;;6.72;66.67;100680.94;129444;1273;114752;-68
2023/04/19 04:08:01;;;;;;;10.80;6.20;;;;;;;6.64;66.26;100673.70;129430;1260;114855;-68
2023/04/19 04:11:03;;;;;;;11.50;6.50;;;;;;;6.59;66.94;100675.08;129366;1261;114739;-68
2023/04/19 04:14:05;;;;;;;13.50;7.60;;;;;;;6.53;67.21;100680.23;129419;1263;114778;-69
2023/04/19 04:17:07;;;;;;;11.10;6.20;;;;;;;6.41;68.38;100688.14;129479;1263;115228;-69
2023/04/19 04:20:12;;;;;;;12.90;6.50;;;;;;;6.22;69.21;100692.36;129422;1261;116313;-67
2023/04/19 04:23:14;;;;;;;8.90;5.20;;;;;;;6.01;69.68;100692.50;129513;1278;114718;-66
2023/04/19 04:26:19;;;;;;;12.50;6.50;;;;;;;5.80;70.17;100694.59;129706;1281;114833;-69
2023/04/19 04:29:21;;;;;;;12.10;7.10;;;;;;;5.61;70.87;100696.25;129442;1260;128976;-69
2023/04/19 04:32:23;;;;;;;11.40;7.00;;;;;;;5.50;71.32;100688.02;129424;1271;115334;-66
2023/04/19 04:35:28;;;;;;;14.30;7.50;;;;;;;5.36;71.55;100688.12;129430;1261;114667;-67
2023/04/19 04:38:31;;;;;;;15.90;8.00;;;;;;;5.25;72.10;100695.27;129587;1271;115748;-70
2023/04/19 04:41:34;;;;;;;14.30;7.90;;;;;;;5.17;72.19;100696.31;129420;1273;114722;-69
2023/04/19 04:44:38;;;;;;;12.50;7.10;;;;;;;5.10;72.60;100695.73;129394;1273;128909;-71
2023/04/19 04:47:40;;;;;;;14.10;7.20;;;;;;;4.99;73.04;100693.14;129363;1271;114743;-69
2023/04/19 04:50:43;;;;;;;12.30;7.80;;;;;;;4.92;73.39;100689.39;129548;1262;114869;-68
2023/04/19 04:53:46;;;;;;;14.40;7.60;;;;;;;4.85;73.57;100689.89;129923;1258;114807;-71
2023/04/19 04:56:48;;;;;;;13.50;7.20;;;;;;;4.77;73.76;100687.39;129661;1260;115238;-71
2023/04/19 04:59:50;;;;;;;15.90;8.20;;;;;;;4.70;74.11;100689.09;129866;1263;115239;-70
2023/04/19 05:02:52;;;;;;;14.40;8.20;;;;;;;4.65;74.10;100684.94;129607;1261;114715;-70
2023/04/19 05:05:55;;;;;;;15.40;7.60;;;;;;;4.63;74.39;100689.60;129630;1281;129734;-71
2023/04/19 05:08:57;;;;;;;13.80;8.00;;;;;;;4.62;74.56;100691.91;129407;1263;114769;-71
2023/04/19 05:11:59;;;;;;;12.40;8.30;;;;;;;4.60;74.60;100691.77;129740;1264;115173;-71
2023/04/19 05:15:01;;;;;;;22.60;8.40;;;;;;;4.60;74.77;100689.64;129360;1281;114814;-71
2023/04/19 05:18:03;;;;;;;12.70;8.70;;;;;;;4.62;74.95;100686.43;129847;1280;114892;-71
2023/04/19 05:21:09;;;;;;;13.80;8.10;;;;;;;4.61;74.83;100684.67;129714;1264;115172;-71
2023/04/19 05:24:11;;;;;;;14.00;8.00;;;;;;;4.62;74.77;100682.01;129612;1281;114792;-71
2023/04/19 05:27:13;;;;;;;17.10;8.80;;;;;;;4.66;74.97;100682.63;129338;1258;114737;-71
2023/04/19 05:30:15;;;;;;;11.90;7.50;;;;;;;4.67;74.80;100683.48;129482;1263;114740;-71
2023/04/19 05:33:17;;;;;;;12.10;7.60;;;;;;;4.67;74.54;100674.49;129354;1281;114738;-70
2023/04/19 05:36:18;;;;;;;9.40;7.80;;;;;;;4.68;74.50;100680.48;129450;1274;115356;-70
2023/04/19 05:39:22;;;;;;;15.80;7.50;;;;;;;4.67;74.38;100676.61;129417;1261;114742;-70
2023/04/19 05:42:24;;;;;;;13.10;8.10;;;;;;;4.66;74.28;100676.64;129523;1264;114710;-71
2023/04/19 05:45:27;;;;;;;12.60;6.80;;;;;;;4.64;74.47;100676.99;129379;1281;114786;-72
2023/04/19 05:48:29;;;;;;;11.80;7.60;;;;;;;4.66;74.42;100674.31;129560;1260;114731;-68
2023/04/19 05:51:31;;;;;;;15.80;7.90;;;;;;;4.68;74.13;100669.69;129311;1260;129339;-70
2023/04/19 05:54:34;;;;;;;15.20;7.80;;;;;;;4.67;73.98;100667.59;129306;1260;115398;-71
2023/04/19 05:57:37;;;;;;;15.80;7.10;;;;;;;4.66;73.85;100668.83;129414;1263;114767;-70
2023/04/19 06:00:39;;;;;;;10.10;6.70;;;;;;;4.72;73.84;100672.80;129504;1262;114798;-66
2023/04/19 06:03:41;;;;;;;11.60;6.80;;;;;;;4.78;73.92;100668.42;129488;1264;115321;-68
2023/04/19 06:06:43;;;;;;;12.70;7.50;;;;;;;4.85;73.66;100671.13;129398;1261;114742;-66
2023/04/19 06:09:45;;;;;;;11.90;7.00;;;;;;;4.91;73.36;100672.60;129537;1262;114790;-68
2023/04/19 06:12:47;;;;;;;15.80;7.40;;;;;;;4.95;73.25;100677.13;129563;1264;128508;-69
2023/04/19 06:15:49;;;;;;;12.30;7.20;;;;;;;4.96;73.19;100673.39;129491;1264;114716;-68
2023/04/19 06:18:51;;;;;;;14.50;6.80;;;;;;;5.01;73.51;100672.04;129513;1261;114713;-70
2023/04/19 06:21:53;;;;;;;9.10;6.70;;;;;;;5.05;73.20;100671.98;129416;1258;114799;-70
2023/04/19 06:24:55;;;;;;;18.10;6.90;;;;;;;5.06;73.17;100672.83;129593;1277;115168;-69
2023/04/19 06:27:57;;;;;;;12.10;7.40;;;;;;;5.06;72.44;100675.12;129661;1262;114718;-68
2023/04/19 06:31:01;;;;;;;11.00;7.00;;;;;;;5.04;72.52;100675.87;129847;1281;116564;-66
2023/04/19 06:34:03;;;;;;;14.50;6.70;;;;;;;5.11;72.87;100681.20;129927;1262;128746;-70
2023/04/19 06:37:05;;;;;;;13.40;6.40;;;;;;;5.23;72.81;100678.85;129689;1273;114744;-69
2023/04/19 06:40:10;;;;;;;11.30;6.40;;;;;;;5.30;72.88;100680.30;129569;1261;114914;-71
2023/04/19 06:43:13;;;;;;;12.50;7.20;;;;;;;5.42;72.93;100681.98;129278;1260;114749;-71
2023/04/19 06:46:15;;;;;;;11.40;6.60;;;;;;;5.60;72.94;100681.77;129573;1261;115409;-71
2023/04/19 06:49:17;;;;;;;11.40;6.00;;;;;;;5.79;73.00;100685.39;130108;1259;114717;-68
2023/04/19 06:52:20;;;;;;;17.60;7.10;;;;;;;5.95;72.59;100683.95;129605;1263;114725;-69
2023/04/19 06:55:22;;;;;;;12.70;6.40;;;;;;;6.02;72.31;100683.63;129571;1264;128537;-66
2023/04/19 06:58:25;;;;;;;13.90;6.60;;;;;;;6.05;72.07;100683.03;129844;1264;115344;-66
2023/04/19 07:01:27;;;;;;;13.70;7.40;;;;;;;6.07;71.67;100686.52;129925;1262;114723;-67
2023/04/19 07:04:30;;;;;;;14.30;5.80;;;;;;;6.11;71.83;100685.02;129422;1260;114821;-68
2023/04/19 07:07:32;;;;;;;12.70;6.50;;;;;;;6.17;71.75;100684.16;129541;1261;114856;-66
2023/04/19 07:10:34;;;;;;;13.70;7.10;;;;;;;6.20;71.81;100682.83;129492;1259;114730;-68
2023/04/19 07:13:36;;;;;;;12.80;7.00;;;;;;;6.28;71.95;100673.08;129471;1259;114806;-66
2023/04/19 07:16:38;;;;;;;10.90;6.70;;;;;;;6.34;71.57;100679.45;129401;1271;128618;-66
2023/04/19 07:19:41;;;;;;;14.80;8.40;;;;;;;6.39;71.65;100678.98;129372;1275;114749;-70
2023/04/19 07:22:43;;;;;;;10.00;7.30;;;;;;;6.43;71.48;100678.00;129453;1273;114732;-66
2023/04/19 07:25:45;;;;;;;13.70;8.00;;;;;;;6.41;71.14;100676.44;129410;1262;114742;-66
2023/04/19 07:28:47;;;;;;;10.70;7.60;;;;;;;6.38;71.19;100671.55;129484;1264;114751;-66
2023/04/19 07:31:49;;;;;;;14.00;7.30;;;;;;;6.43;71.21;100674.64;129408;1272;114892;-65
2023/04/19 07:34:55;;;;;;;14.50;7.30;;;;;;;6.56;71.37;100670.20;129560;1273;114711;-65
2023/04/19 07:37:57;;;;;;;12.50;7.80;;;;;;;6.82;71.78;100663.45;129355;1262;129306;-69
2023/04/19 07:40:59;;;;;;;22.00;9.50;;;;;;;7.11;71.37;100660.82;129514;1261;114712;-67
2023/04/19 07:44:01;;;;;;;13.50;8.10;;;;;;;7.36;71.40;100657.97;129479;1259;114768;-65
2023/04/19 07:47:05;;;;;;;14.50;7.30;;;;;;;7.49;70.37;100663.46;129226;1260;114930;-69
2023/04/19 07:50:08;;;;;;;14.00;7.50;;;;;;;7.51;70.27;100660.91;129467;1277;114735;-65
2023/04/19 07:53:10;;;;;;;14.70;7.30;;;;;;;7.52;70.16;100657.31;129685;1259;114805;-67
2023/04/19 07:56:14;;;;;;;13.80;8.00;;;;;;;7.55;70.09;100660.05;129524;1261;114812;-65
2023/04/19 07:59:16;;;;;;;14.00;8.40;;;;;;;7.69;70.09;100644.70;129410;1262;114716;-65
2023/04/19 08:02:18;;;;;;;11.80;8.60;;;;;;;8.03;71.10;100642.16;129472;1258;114804;-65
2023/04/19 08:05:20;;;;;;;14.40;8.70;;;;;;;8.51;71.00;100640.89;129598;1281;114824;-65
2023/04/19 08:08:23;;;;;;;15.00;8.80;;;;;;;8.83;70.26;100635.83;129546;1275;114752;-66
2023/04/19 08:11:26;;;;;;;14.50;7.80;;;;;;;8.96;69.65;100639.46;129563;1281;114803;-65
2023/04/19 08:14:28;;;;;;;12.60;7.60;;;;;;;8.84;68.45;100645.05;129589;1259;114819;-65
2023/04/19 08:17:30;;;;;;;14.80;8.60;;;;;;;8.70;68.57;100646.30;129817;1262;115299;-66
2023/04/19 08:20:32;;;;;;;11.70;7.90;;;;;;;8.52;68.47;100647.63;129551;1277;115249;-67
2023/04/19 08:23:34;;;;;;;15.60;8.00;;;;;;;8.32;68.21;100649.54;130473;1259;114731;-65
2023/04/19 08:26:37;;;;;;;14.80;8.20;;;;;;;8.15;68.40;100648.88;130973;1261;114796;-65
2023/04/19 08:29:40;;;;;;;14.20;8.80;;;;;;;7.99;68.48;100652.44;130553;1261;115174;-69
2023/04/19 08:32:42;;;;;;;9.90;7.40;;;;;;;7.83;68.67;100647.79;129850;1261;114770;-69
2023/04/19 08:35:44;;;;;;;13.40;7.90;;;;;;;7.76;68.60;100644.65;129927;1261;115409;-70
2023/04/19 08:38:47;;;;;;;15.50;9.40;;;;;;;7.74;69.00;100645.77;129270;1281;128402;-65
2023/04/19 08:41:49;;;;;;;16.30;9.50;;;;;;;7.72;68.94;100644.95;129585;1264;114754;-65
2023/04/19 08:44:52;;;;;;;13.80;9.30;;;;;;;7.72;68.96;100644.42;129693;1258;114727;-67
2023/04/19 08:47:56;;;;;;;13.50;9.00;;;;;;;7.79;69.00;100643.30;129727;1261;114706;-65
2023/04/19 08:50:58;;;;;;;14.60;8.10;;;;;;;7.82;68.98;100644.98;129636;1264;114780;-65
2023/04/19 08:54:03;;;;;;;11.60;7.00;;;;;;;7.85;68.63;100642.38;129455;1264;114797;-65
2023/04/19 08:57:07;;;;;;;12.40;6.80;;;;;;;7.90;68.81;100641.52;129415;1281;128956;-68
2023/04/19 09:00:10;;;;;;;20.50;9.70;;;;;;;8.01;68.31;100640.63;129486;1261;115215;-70
2023/04/19 09:03:12;;;;;;;16.80;10.00;;;;;;;8.20;68.25;100635.89;129488;1261;114731;-71
2023/04/19 09:06:14;;;;;;;19.20;9.50;;;;;;;8.35;68.20;100634.13;129457;1259;114761;-70
2023/04/19 09:09:18;;;;;;;13.50;8.50;;;;;;;8.58;68.94;100629.44;129492;1263;114734;-70
2023/04/19 09:12:20;;;;;;;20.30;9.20;;;;;;;8.77;68.71;100625.17;129375;1265;115117;-66
2023/04/19 09:15:39;;;;;;;14.40;9.10;;;;;;;8.84;68.25;100626.38;129376;1261;114751;-70
2023/04/19 09:18:54;;;;;;;17.80;10.10;;;;;;;8.92;68.34;100618.40;129450;1261;114716;-70
2023/04/19 09:21:56;;;;;;;15.00;9.10;;;;;;;9.02;68.19;100620.18;129526;1277;114768;-68
2023/04/19 09:25:02;;;;;;;13.90;9.00;;;;;;;8.99;67.72;100614.03;129425;1273;114752;-65
2023/04/19 09:28:11;;;;;;;14.70;9.10;;;;;;;8.94;67.38;100615.30;129443;1259;114761;-66
2023/04/19 09:31:13;;;;;;;18.10;9.60;;;;;;;8.88;67.36;100615.00;129507;1259;128639;-71
2023/04/19 09:34:17;;;;;;;21.00;9.70;;;;;;;8.83;67.29;100611.61;129550;1259;115165;-70
2023/04/19 09:37:20;;;;;;;13.60;9.20;;;;;;;8.81;67.50;100615.43;129505;1258;114882;-66
2023/04/19 09:40:23;;;;;;;15.80;9.80;;;;;;;8.71;67.17;100618.82;129426;1262;114819;-69
2023/04/19 09:43:25;;;;;;;15.30;10.50;;;;;;;8.61;67.17;100621.52;129496;1264;114772;-67
2023/04/19 09:46:31;;;;;;;16.60;11.50;;;;;;;8.53;67.39;100624.83;129450;1274;114753;-70
2023/04/19 09:49:33;;;;;;;16.20;10.00;;;;;;;8.48;67.48;100625.33;129473;1259;115150;-67
2023/04/19 09:52:36;;;;;;;19.90;11.20;;;;;;;8.40;67.33;100622.95;129666;1258;114730;-69
2023/04/19 09:55:40;;;;;;;20.50;11.80;;;;;;;8.37;67.66;100622.84;129753;1259;114749;-65
2023/04/19 09:58:42;;;;;;;18.30;11.30;;;;;;;8.37;67.72;100621.06;129502;1261;115432;-68
2023/04/19 10:02:04;;;;;;;21.50;12.40;;;;;;;8.31;67.20;100619.33;129875;1259;114778;-70
2023/04/19 10:05:08;;;;;;;21.10;11.20;;;;;;;8.23;67.25;100617.84;129430;1262;128618;-70
2023/04/19 10:08:11;;;;;;;28.80;16.90;;;;;;;8.20;67.62;100619.15;129262;1267;115278;-68
2023/04/19 10:11:14;;;;;;;22.20;13.80;;;;;;;8.22;67.83;100618.92;129671;1258;114841;-66
2023/04/19 10:14:20;;;;;;;18.60;12.70;;;;;;;8.26;68.08;100612.21;129469;1265;114824;-69
2023/04/19 10:17:23;;;;;;;21.20;13.70;;;;;;;8.29;67.75;100614.94;129427;1281;114756;-66
2023/04/19 10:20:48;;;;;;;18.20;11.10;;;;;;;8.28;67.74;100617.48;129428;1278;114787;-69
2023/04/19 10:23:50;;;;;;;11.50;7.80;;;;;;;8.29;67.80;100614.05;129419;1261;114788;-65
2023/04/19 10:27:02;;;;;;;15.50;10.70;;;;;;;8.28;67.85;100611.58;129487;1261;114726;-68
2023/04/19 10:30:09;;;;;;;19.90;11.70;;;;;;;8.26;67.82;100610.27;129370;1259;114726;-65
2023/04/19 10:33:24;;;;;;;26.60;11.10;;;;;;;8.20;67.99;100606.88;129425;1260;114871;-69
2023/04/19 10:36:27;;;;;;;30.30;16.20;;;;;;;8.17;68.10;100600.58;129414;1261;127636;-68
2023/04/19 10:39:40;;;;;;;17.40;12.60;;;;;;;8.12;68.09;100602.02;129375;1281;115194;-69
2023/04/19 10:43:10;;;;;;;20.20;12.60;;;;;;;8.05;67.66;100601.36;129496;1259;115183;-66
2023/04/19 10:46:35;;;;;;;17.90;11.60;;;;;;;7.95;67.70;100600.09;129331;1281;114950;-66
2023/04/19 10:49:45;;;;;;;20.90;12.30;;;;;;;7.84;68.18;100602.79;129447;1261;115168;-70
2023/04/19 10:52:47;;;;;;;17.40;11.70;;;;;;;7.73;68.35;100603.30;129498;1261;128822;-66
2023/04/19 10:55:50;;;;;;;17.80;11.20;;;;;;;7.66;68.43;100603.90;129415;1262;114736;-71
2023/04/19 10:59:08;;;;;;;19.40;11.50;;;;;;;7.61;68.41;100608.85;129502;1261;114816;-66
2023/04/19 11:02:23;;;;;;;27.10;12.60;;;;;;;7.55;68.67;100607.64;129567;1281;115095;-70
2023/04/19 11:05:26;;;;;;;18.90;12.20;;;;;;;7.48;68.51;100607.31;129222;1268;114830;-70
2023/04/19 11:08:28;;;;;;;20.20;12.70;;;;;;;7.43;68.81;100603.55;129640;1274;114795;-67
2023/04/19 11:11:36;;;;;;;18.40;12.00;;;;;;;7.41;68.85;100594.39;129457;1262;114808;-70
2023/04/19 11:14:40;;;;;;;18.30;13.40;;;;;;;7.45;69.44;100594.23;129580;1259;114711;-67
2023/04/19 11:17:42;;;;;;;20.60;14.40;;;;;;;7.51;69.37;100595.86;129348;1261;114722;-67
2023/04/19 11:20:44;;;;;;;21.10;14.10;;;;;;;7.52;69.55;100599.73;129450;1260;114807;-71
2023/04/19 11:23:48;;;;;;;24.20;14.20;;;;;;;7.50;69.43;100598.20;129522;1262;115314;-70
2023/04/19 11:26:50;;;;;;;18.90;12.50;;;;;;;7.44;69.27;100594.45;129349;1281;128833;-69
2023/04/19 11:29:52;;;;;;;24.60;14.30;;;;;;;7.42;69.35;100597.02;129425;1259;114739;-69
2023/04/19 11:32:55;;;;;;;19.00;14.10;;;;;;;7.39;69.75;100596.58;129519;1258;114800;-70
2023/04/19 11:35:57;;;;;;;18.20;11.90;;;;;;;7.35;69.60;100593.16;129490;1259;114839;-68
2023/04/19 11:38:59;;;;;;;18.00;11.10;;;;;;;7.33;69.75;100590.38;129520;1259;115290;-66
2023/04/19 11:42:02;;;;;;;15.80;11.40;;;;;;;7.28;70.00;100592.13;129554;1273;114728;-68
2023/04/19 11:45:05;;;;;;;19.40;12.90;;;;;;;7.27;70.09;100589.31;129452;1261;114764;-69
2023/04/19 11:48:16;;;;;;;20.40;12.60;;;;;;;7.28;70.19;100590.15;129446;1261;114818;-71
2023/04/19 11:51:19;;;;;;;32.10;17.50;;;;;;;7.26;70.08;100592.38;129443;1264;115388;-69
2023/04/19 11:54:22;;;;;;;25.30;15.70;;;;;;;7.25;70.18;100598.98;129848;1258;114759;-70
2023/04/19 11:57:29;;;;;;;26.70;15.60;;;;;;;7.21;70.25;100596.27;129733;1258;114669;-69
2023/04/19 12:00:31;;;;;;;22.70;14.50;;;;;;;7.17;70.45;100598.51;129257;1281;114827;-67
2023/04/19 12:03:39;;;;;;;17.70;12.70;;;;;;;7.12;70.70;100598.84;129414;1259;114764;-68
2023/04/19 12:06:41;;;;;;;19.40;13.40;;;;;;;7.10;70.80;100599.08;129433;1261;115170;-69
2023/04/19 12:09:47;;;;;;;17.80;13.10;;;;;;;7.09;70.96;100600.87;129552;1261;114827;-70
2023/04/19 12:12:49;;;;;;;18.40;11.90;;;;;;;7.08;71.00;100597.20;129477;1281;114678;-68
2023/04/19 12:15:52;;;;;;;20.00;13.30;;;;;;;7.06;71.06;100597.40;129648;1281;114713;-66
2023/04/19 12:18:54;;;;;;;23.10;12.40;;;;;;;7.04;71.28;100595.17;129572;1259;114796;-66
2023/04/19 12:22:07;;;;;;;16.50;12.20;;;;;;;7.03;71.43;100595.92;129510;1281;128830;-71
2023/04/19 12:25:09;;;;;;;23.10;12.60;;;;;;;7.00;71.40;100596.00;129520;1281;115161;-68
2023/04/19 12:28:13;;;;;;;20.80;14.80;;;;;;;6.95;71.18;100597.02;129502;1281;114748;-68
2023/04/19 12:31:15;;;;;;;24.60;17.00;;;;;;;6.95;71.31;100600.77;129576;1258;115113;-65
2023/04/19 12:34:17;;;;;;;18.20;10.90;;;;;;;6.94;71.49;100604.71;129586;1259;115431;-67
2023/04/19 12:37:19;;;;;;;18.00;11.00;;;;;;;6.89;71.48;100606.81;129623;1261;114714;-71
2023/04/19 12:40:22;;;;;;;14.60;10.50;;;;;;;6.82;71.37;100605.77;129612;1262;128669;-65
2023/04/19 12:43:24;;;;;;;18.40;12.30;;;;;;;6.80;71.70;100607.57;129877;1261;114729;-66
2023/04/19 12:46:27;;;;;;;13.50;10.70;;;;;;;6.81;71.82;100603.63;129478;1261;114763;-69
2023/04/19 12:49:29;;;;;;;15.00;10.50;;;;;;;6.77;71.40;100604.83;129830;1262;114762;-66
2023/04/19 12:52:32;;;;;;;17.10;11.30;;;;;;;6.73;71.24;100605.14;129472;1259;114749;-66
2023/04/19 12:55:33;;;;;;;15.50;9.60;;;;;;;6.69;71.46;100603.98;129462;1261;114706;-65
2023/04/19 12:58:36;;;;;;;13.30;9.70;;;;;;;6.66;71.38;100601.78;129570;1259;114841;-70
2023/04/19 13:01:37;;;;;;;19.50;10.70;;;;;;;6.62;71.56;100602.58;129486;1261;128595;-65
2023/04/19 13:04:39;;;;;;;17.90;10.50;;;;;;;6.62;71.50;100600.83;129389;1261;115295;-70
2023/04/19 13:07:42;;;;;;;16.20;10.80;;;;;;;6.64;71.48;100602.90;129482;1262;114726;-66
2023/04/19 13:10:44;;;;;;;14.60;11.30;;;;;;;6.69;71.60;100603.47;129598;1262;114732;-65
2023/04/19 13:13:46;;;;;;;16.40;10.90;;;;;;;6.78;71.72;100602.12;129526;1261;114789;-66
2023/04/19 13:16:49;;;;;;;12.20;8.80;;;;;;;6.86;71.72;100601.92;129474;1261;114644;-64
2023/04/19 13:19:51;;;;;;;14.00;9.50;;;;;;;6.92;71.66;100599.60;129551;1259;114874;-66
2023/04/19 13:22:53;;;;;;;12.60;9.80;;;;;;;6.97;71.28;100599.62;129231;1259;270052;-64
2023/04/19 13:25:55;;;;;;;17.30;10.40;;;;;;;7.04;71.61;100601.73;129460;1264;114736;-64
2023/04/19 13:28:58;;;;;;;14.90;10.20;;;;;;;7.16;71.66;100600.13;129532;1259;115104;-68
2023/04/19 13:32:06;;;;;;;13.40;10.00;;;;;;;7.31;71.14;100596.84;129613;1261;115377;-67
2023/04/19 13:35:14;;;;;;;14.20;10.30;;;;;;;7.47;71.61;100592.42;129464;1281;114856;-65
2023/04/19 13:38:16;;;;;;;13.40;8.90;;;;;;;7.60;70.90;100594.50;129539;1275;114842;-64
2023/04/19 13:41:19;;;;;;;11.70;7.70;;;;;;;7.65;71.02;100593.79;129449;1259;114737;-68
2023/04/19 13:44:21;;;;;;;9.90;7.70;;;;;;;7.67;70.82;100593.91;129478;1259;127781;-65
2023/04/19 13:47:23;;;;;;;10.00;7.60;;;;;;;7.66;70.76;100594.13;129455;1261;114805;-68
2023/04/19 13:50:25;;;;;;;10.30;7.50;;;;;;;7.67;70.58;100592.48;129617;1259;114714;-66